Time;durP1;ratioP1;P1;durP2;ratioP2;P2;SDS_P1;SDS_P2;PMS_P1;PMS_P2;Temp;Humidity;BMP_temperature;BMP_pressure;BME280_temperature;BME280_humidity;BME280_pressure;Samples;Min_cycle;Max_cycle;Signal;HPM_P1;HPM_P2
2022/06/01 00:01:06;;;;;;;26.23;20.13;;;;;;;;;;5038062;28;20178;-42
2022/06/01 00:03:33;;;;;;;28.43;23.57;;;;;;;;;;5039964;28;20708;-42
2022/06/01 00:05:59;;;;;;;32.53;27.23;;;;;;;;;;5038286;28;20229;-42
2022/06/01 00:08:26;;;;;;;30.27;25.73;;;;;;;;;;5047584;28;20183;-42
2022/06/01 00:10:52;;;;;;;38.10;29.50;;;;;;;;;;5048718;28;20224;-42
2022/06/01 00:13:19;;;;;;;43.50;31.10;;;;;;;;;;5042095;28;20971;-42
2022/06/01 00:15:45;;;;;;;36.33;29.43;;;;;;;;;;5047458;28;20210;-42
2022/06/01 00:18:11;;;;;;;41.97;31.67;;;;;;;;;;5049422;28;20175;-42
2022/06/01 00:20:38;;;;;;;34.17;28.53;;;;;;;;;;5052767;28;20261;-42
2022/06/01 00:23:04;;;;;;;46.47;34.93;;;;;;;;;;5044126;28;20780;-43
2022/06/01 00:25:30;;;;;;;37.73;31.93;;;;;;;;;;5053115;28;20779;-42
2022/06/01 00:27:56;;;;;;;43.07;34.30;;;;;;;;;;5055499;28;20209;-43
2022/06/01 00:30:23;;;;;;;46.87;36.80;;;;;;;;;;5050648;28;20577;-42
2022/06/01 00:32:49;;;;;;;48.67;36.47;;;;;;;;;;5052279;28;21221;-42
2022/06/01 00:35:16;;;;;;;85.00;59.10;;;;;;;;;;5057495;28;20250;-42
2022/06/01 00:37:43;;;;;;;80.67;58.93;;;;;;;;;;5056988;28;20795;-43
2022/06/01 00:40:10;;;;;;;99.77;69.80;;;;;;;;;;5050155;28;20182;-41
2022/06/01 00:42:38;;;;;;;98.43;69.63;;;;;;;;;;5053664;28;20184;-42
2022/06/01 00:45:05;;;;;;;121.70;83.67;;;;;;;;;;5047156;28;20180;-42
2022/06/01 00:47:32;;;;;;;117.93;84.50;;;;;;;;;;5056025;28;20551;-43
2022/06/01 00:49:58;;;;;;;125.87;85.70;;;;;;;;;;5049450;28;20186;-42
2022/06/01 00:52:37;;;;;;;131.73;89.07;;;;;;;;;;5051717;28;20188;-43
2022/06/01 00:55:07;;;;;;;144.67;91.93;;;;;;;;;;5058371;28;20291;-42
2022/06/01 00:57:34;;;;;;;123.17;84.70;;;;;;;;;;5053364;28;20894;-42
2022/06/01 01:00:02;;;;;;;110.73;77.77;;;;;;;;;;5052421;28;20190;-43
2022/06/01 01:02:29;;;;;;;111.90;78.73;;;;;;;;;;5052583;28;20629;-42
2022/06/01 01:04:56;;;;;;;112.73;78.93;;;;;;;;;;5054544;28;20300;-42
2022/06/01 01:07:23;;;;;;;128.77;90.80;;;;;;;;;;5056195;28;20267;-43
2022/06/01 01:09:49;;;;;;;133.27;90.20;;;;;;;;;;5055196;28;20178;-41
2022/06/01 01:12:15;;;;;;;130.60;85.43;;;;;;;;;;5048850;28;20970;-42
2022/06/01 01:14:43;;;;;;;116.37;83.00;;;;;;;;;;5051112;28;20218;-43
2022/06/01 01:17:11;;;;;;;141.57;91.87;;;;;;;;;;5054747;28;20197;-43
2022/06/01 01:19:42;;;;;;;126.83;86.07;;;;;;;;;;5049919;28;20395;-42
2022/06/01 01:22:27;;;;;;;129.33;84.07;;;;;;;;;;5050667;28;20178;-43
2022/06/01 01:25:12;;;;;;;122.60;80.90;;;;;;;;;;5053285;28;20599;-42
2022/06/01 01:27:38;;;;;;;109.10;72.23;;;;;;;;;;5055884;28;20350;-43
2022/06/01 01:30:23;;;;;;;115.20;78.93;;;;;;;;;;5047313;28;20205;-52
2022/06/01 01:32:49;;;;;;;99.23;66.07;;;;;;;;;;5044523;28;20568;-42
2022/06/01 01:35:16;;;;;;;89.57;64.40;;;;;;;;;;5051313;28;20242;-42
2022/06/01 01:37:43;;;;;;;95.87;64.13;;;;;;;;;;5054872;28;20244;-43
2022/06/01 01:40:09;;;;;;;91.87;58.90;;;;;;;;;;5053123;28;20179;-42
2022/06/01 01:42:35;;;;;;;91.90;61.77;;;;;;;;;;5053221;28;20626;-42
2022/06/01 01:45:01;;;;;;;92.23;62.67;;;;;;;;;;5048464;28;20836;-43
2022/06/01 01:47:28;;;;;;;92.57;64.20;;;;;;;;;;5053308;28;21243;-43
2022/06/01 01:49:54;;;;;;;88.77;61.97;;;;;;;;;;5049677;28;20554;-42
2022/06/01 01:52:20;;;;;;;88.57;59.63;;;;;;;;;;5055766;28;20181;-42
2022/06/01 01:55:13;;;;;;;82.83;57.43;;;;;;;;;;5048917;28;20174;-42
2022/06/01 01:57:58;;;;;;;74.67;53.77;;;;;;;;;;5047729;28;20201;-42
2022/06/01 02:00:24;;;;;;;71.23;52.57;;;;;;;;;;5044662;28;20163;-42
2022/06/01 02:03:09;;;;;;;75.63;53.30;;;;;;;;;;5031105;28;20247;-42
2022/06/01 02:08:32;;;;;;;79.00;57.63;;;;;;;;;;5050856;28;20699;-42
2022/06/01 02:13:48;;;;;;;82.00;55.73;;;;;;;;;;5058019;28;20724;-42
2022/06/01 02:16:15;;;;;;;70.50;50.07;;;;;;;;;;5050125;28;20622;-42
2022/06/01 02:18:43;;;;;;;63.13;48.63;;;;;;;;;;5046921;28;20168;-42
2022/06/01 02:21:13;;;;;;;75.93;53.87;;;;;;;;;;5055425;28;20542;-41
2022/06/01 02:23:39;;;;;;;74.40;53.73;;;;;;;;;;5049746;28;20215;-42
2022/06/01 02:26:06;;;;;;;73.67;52.33;;;;;;;;;;5055309;28;20252;-42
2022/06/01 02:28:33;;;;;;;67.40;51.20;;;;;;;;;;5055512;28;20175;-42
2022/06/01 02:31:00;;;;;;;73.27;52.33;;;;;;;;;;5058860;28;20309;-44
2022/06/01 02:33:28;;;;;;;70.97;52.70;;;;;;;;;;5055649;28;20578;-44
2022/06/01 02:35:55;;;;;;;74.73;52.37;;;;;;;;;;5053641;28;20226;-44
2022/06/01 02:38:29;;;;;;;71.07;52.17;;;;;;;;;;5054819;28;20202;-42
2022/06/01 02:40:55;;;;;;;61.93;47.43;;;;;;;;;;5050664;28;20452;-42
2022/06/01 02:43:21;;;;;;;73.87;52.03;;;;;;;;;;5055795;28;20706;-42
2022/06/01 02:45:47;;;;;;;59.70;46.47;;;;;;;;;;5058823;28;20275;-42
2022/06/01 02:48:13;;;;;;;65.23;45.40;;;;;;;;;;5056623;28;20181;-42
2022/06/01 02:50:40;;;;;;;61.00;47.17;;;;;;;;;;5050409;28;20665;-42
2022/06/01 02:53:06;;;;;;;64.10;46.73;;;;;;;;;;5054833;28;20233;-42
2022/06/01 02:55:33;;;;;;;58.57;44.20;;;;;;;;;;5051732;28;20541;-42
2022/06/01 02:58:00;;;;;;;51.97;41.47;;;;;;;;;;5054291;28;22068;-42
2022/06/01 03:00:27;;;;;;;61.13;42.60;;;;;;;;;;5052293;28;20886;-42
2022/06/01 03:02:55;;;;;;;57.17;43.77;;;;;;;;;;5046146;28;20884;-42
2022/06/01 03:05:23;;;;;;;56.17;43.07;;;;;;;;;;5042415;28;20788;-42
2022/06/01 03:07:49;;;;;;;51.07;40.03;;;;;;;;;;5048274;28;20179;-42
2022/06/01 03:10:16;;;;;;;49.60;39.07;;;;;;;;;;5055393;28;21096;-41
2022/06/01 03:12:42;;;;;;;51.43;40.40;;;;;;;;;;5052850;28;20179;-40
2022/06/01 03:15:09;;;;;;;51.67;40.77;;;;;;;;;;5049116;28;20209;-42
2022/06/01 03:17:35;;;;;;;47.93;38.80;;;;;;;;;;5055633;28;20389;-41
2022/06/01 03:20:02;;;;;;;49.33;40.03;;;;;;;;;;5047819;28;20281;-42
2022/06/01 03:22:28;;;;;;;62.87;46.47;;;;;;;;;;5043861;28;20175;-42
2022/06/01 03:24:54;;;;;;;59.33;43.03;;;;;;;;;;5048545;28;20641;-42
2022/06/01 03:27:20;;;;;;;58.80;44.20;;;;;;;;;;5052488;28;20849;-42
2022/06/01 03:29:46;;;;;;;50.70;39.67;;;;;;;;;;5043557;28;20736;-42
2022/06/01 03:32:13;;;;;;;57.03;41.80;;;;;;;;;;5041315;28;20260;-42
2022/06/01 03:34:39;;;;;;;54.07;41.23;;;;;;;;;;5049384;28;20527;-40
2022/06/01 03:37:05;;;;;;;53.30;40.70;;;;;;;;;;5045188;28;20395;-41
2022/06/01 03:39:32;;;;;;;60.17;45.30;;;;;;;;;;5041438;28;20190;-44
2022/06/01 03:41:59;;;;;;;65.60;47.83;;;;;;;;;;5044910;28;20174;-42
2022/06/01 03:47:10;;;;;;;56.10;41.63;;;;;;;;;;5046191;28;20888;-42
2022/06/01 03:49:37;;;;;;;52.60;42.33;;;;;;;;;;5047351;28;20186;-42
2022/06/01 03:52:04;;;;;;;57.87;44.73;;;;;;;;;;5049558;28;20921;-43
2022/06/01 03:54:30;;;;;;;64.23;44.43;;;;;;;;;;5056306;28;20212;-41
2022/06/01 03:56:56;;;;;;;59.20;45.10;;;;;;;;;;5053777;28;20301;-42
2022/06/01 03:59:22;;;;;;;69.23;50.03;;;;;;;;;;5047641;28;20179;-42
2022/06/01 04:01:48;;;;;;;62.47;45.50;;;;;;;;;;5035132;28;20247;-41
2022/06/01 04:04:14;;;;;;;62.77;48.87;;;;;;;;;;5056485;28;20247;-43
2022/06/01 04:06:40;;;;;;;60.63;45.50;;;;;;;;;;5050408;28;20264;-42
2022/06/01 04:09:06;;;;;;;70.20;51.87;;;;;;;;;;5039445;28;20221;-42
2022/06/01 04:11:32;;;;;;;70.33;53.47;;;;;;;;;;5052966;28;20773;-43
2022/06/01 04:13:59;;;;;;;84.67;57.57;;;;;;;;;;5058127;28;20248;-42
2022/06/01 04:16:25;;;;;;;87.60;57.53;;;;;;;;;;5055445;28;20202;-42
2022/06/01 04:18:51;;;;;;;74.83;53.53;;;;;;;;;;5055431;28;20649;-44
2022/06/01 04:21:22;;;;;;;82.07;55.13;;;;;;;;;;5059124;28;20317;-44
2022/06/01 04:23:49;;;;;;;82.77;56.03;;;;;;;;;;5051138;28;21138;-44
2022/06/01 04:26:16;;;;;;;67.10;50.27;;;;;;;;;;5052637;28;20182;-44
2022/06/01 04:28:42;;;;;;;85.10;59.27;;;;;;;;;;5049558;28;20596;-44
2022/06/01 04:31:09;;;;;;;72.93;53.63;;;;;;;;;;5057539;28;20186;-43
2022/06/01 04:33:35;;;;;;;68.70;52.37;;;;;;;;;;5055919;28;20179;-44
2022/06/01 04:36:01;;;;;;;82.80;56.27;;;;;;;;;;5047089;28;20653;-43
2022/06/01 04:38:27;;;;;;;71.13;53.07;;;;;;;;;;5053580;28;20277;-44
2022/06/01 04:40:53;;;;;;;78.63;52.50;;;;;;;;;;5039918;28;20251;-44
2022/06/01 04:43:20;;;;;;;71.00;50.27;;;;;;;;;;5048449;28;20541;-44
2022/06/01 04:45:49;;;;;;;64.83;46.63;;;;;;;;;;5044859;28;20533;-43
2022/06/01 04:48:15;;;;;;;55.63;42.73;;;;;;;;;;5051084;28;20661;-44
2022/06/01 04:50:45;;;;;;;58.27;42.93;;;;;;;;;;5049155;28;20485;-44
2022/06/01 04:53:12;;;;;;;60.30;42.27;;;;;;;;;;5046774;28;20186;-44
2022/06/01 04:55:38;;;;;;;54.53;39.57;;;;;;;;;;5051528;28;20960;-44
2022/06/01 04:58:04;;;;;;;55.47;39.53;;;;;;;;;;5051773;28;20175;-44
2022/06/01 05:00:30;;;;;;;48.10;37.20;;;;;;;;;;5037826;28;20563;-43
2022/06/01 05:02:56;;;;;;;53.40;36.40;;;;;;;;;;5028046;28;21251;-44
2022/06/01 05:05:22;;;;;;;50.23;37.90;;;;;;;;;;5054689;28;20530;-44
2022/06/01 05:07:48;;;;;;;45.20;34.83;;;;;;;;;;5045640;28;20182;-44
2022/06/01 05:10:15;;;;;;;45.87;34.00;;;;;;;;;;5043767;28;20217;-44
2022/06/01 05:12:41;;;;;;;44.17;32.17;;;;;;;;;;5051553;28;20292;-44
2022/06/01 05:15:07;;;;;;;41.63;30.57;;;;;;;;;;5047902;28;20218;-44
2022/06/01 05:17:33;;;;;;;36.97;27.57;;;;;;;;;;5048718;28;20731;-44
2022/06/01 05:20:00;;;;;;;38.53;26.23;;;;;;;;;;5044427;28;20175;-44
2022/06/01 05:22:26;;;;;;;38.20;27.53;;;;;;;;;;5052853;28;20732;-44
2022/06/01 05:24:52;;;;;;;35.33;26.30;;;;;;;;;;5051675;28;20178;-44
2022/06/01 05:27:18;;;;;;;36.37;25.80;;;;;;;;;;5046910;28;20178;-44
2022/06/01 05:29:45;;;;;;;37.10;26.83;;;;;;;;;;5053167;28;20388;-44
2022/06/01 05:32:11;;;;;;;29.57;22.70;;;;;;;;;;5047604;28;20182;-44
2022/06/01 05:34:37;;;;;;;38.43;26.87;;;;;;;;;;5054747;28;20716;-44
2022/06/01 05:37:03;;;;;;;30.03;22.83;;;;;;;;;;5052160;28;20745;-44
2022/06/01 05:39:29;;;;;;;34.73;24.10;;;;;;;;;;5046769;28;20202;-44
2022/06/01 05:41:56;;;;;;;30.07;20.83;;;;;;;;;;5043071;28;20326;-44
2022/06/01 05:44:22;;;;;;;30.10;22.03;;;;;;;;;;5047396;28;20178;-44
2022/06/01 05:46:55;;;;;;;32.97;24.63;;;;;;;;;;5042148;28;20167;-44
2022/06/01 05:49:21;;;;;;;34.00;23.83;;;;;;;;;;5040991;28;20178;-44
2022/06/01 05:51:47;;;;;;;36.13;24.87;;;;;;;;;;5047138;28;20701;-44
2022/06/01 05:54:13;;;;;;;32.87;24.20;;;;;;;;;;5047593;28;20918;-44
2022/06/01 05:56:39;;;;;;;41.13;26.40;;;;;;;;;;5051875;28;20227;-44
2022/06/01 05:59:06;;;;;;;38.37;26.43;;;;;;;;;;5052136;28;20171;-43
2022/06/01 06:01:32;;;;;;;32.83;25.27;;;;;;;;;;5048464;28;20198;-44
2022/06/01 06:03:58;;;;;;;32.57;22.33;;;;;;;;;;5045878;28;20270;-44
2022/06/01 06:06:24;;;;;;;30.23;22.27;;;;;;;;;;5049287;28;20319;-44
2022/06/01 06:08:51;;;;;;;33.10;26.70;;;;;;;;;;5051355;28;20182;-44
2022/06/01 06:11:17;;;;;;;37.37;24.57;;;;;;;;;;5046633;28;20202;-44
2022/06/01 06:13:44;;;;;;;33.83;22.17;;;;;;;;;;5036998;28;20599;-44
2022/06/01 06:16:11;;;;;;;34.00;24.20;;;;;;;;;;5048442;28;20187;-44
2022/06/01 06:18:37;;;;;;;36.93;26.03;;;;;;;;;;5053813;28;20372;-44
2022/06/01 06:21:03;;;;;;;34.90;25.47;;;;;;;;;;5047629;28;20932;-44
2022/06/01 06:23:30;;;;;;;34.97;26.50;;;;;;;;;;5047977;28;20179;-44
2022/06/01 06:25:56;;;;;;;41.37;32.60;;;;;;;;;;5047194;28;20247;-44
2022/06/01 06:28:22;;;;;;;48.47;34.10;;;;;;;;;;5046242;28;20661;-43
2022/06/01 06:30:48;;;;;;;54.03;33.43;;;;;;;;;;5041539;28;20178;-44
2022/06/01 06:33:14;;;;;;;38.97;30.33;;;;;;;;;;5049565;28;20191;-44
2022/06/01 06:35:40;;;;;;;39.60;28.83;;;;;;;;;;5051402;28;20206;-44
2022/06/01 06:38:06;;;;;;;34.47;25.43;;;;;;;;;;5048661;28;20182;-44
2022/06/01 06:40:32;;;;;;;32.00;23.87;;;;;;;;;;5047557;28;21073;-45
2022/06/01 06:42:58;;;;;;;29.67;22.93;;;;;;;;;;5052526;28;20251;-44
2022/06/01 06:45:24;;;;;;;38.50;28.27;;;;;;;;;;5044791;28;20599;-44
2022/06/01 06:47:51;;;;;;;37.13;26.20;;;;;;;;;;5046960;28;20607;-42
2022/06/01 06:50:19;;;;;;;41.37;28.07;;;;;;;;;;5048801;28;21039;-43
2022/06/01 06:52:45;;;;;;;39.13;28.53;;;;;;;;;;5050268;28;20171;-43
2022/06/01 06:55:11;;;;;;;36.93;25.70;;;;;;;;;;5047018;28;20261;-43
2022/06/01 06:57:37;;;;;;;33.43;25.63;;;;;;;;;;5049244;28;20318;-43
2022/06/01 07:00:08;;;;;;;32.97;22.13;;;;;;;;;;5045496;28;20174;-43
2022/06/01 07:02:34;;;;;;;23.83;17.97;;;;;;;;;;5043659;28;22063;-42
2022/06/01 07:05:00;;;;;;;39.93;26.50;;;;;;;;;;5045064;28;20221;-43
2022/06/01 07:07:26;;;;;;;34.67;23.73;;;;;;;;;;5047006;28;20176;-42
2022/06/01 07:09:52;;;;;;;31.90;23.40;;;;;;;;;;5048233;28;20198;-43
2022/06/01 07:12:18;;;;;;;33.33;20.33;;;;;;;;;;5054181;28;20189;-43
2022/06/01 07:14:44;;;;;;;28.27;20.80;;;;;;;;;;5050888;28;20264;-43
2022/06/01 07:17:10;;;;;;;27.83;19.87;;;;;;;;;;5049158;28;20603;-43
2022/06/01 07:19:37;;;;;;;24.93;18.17;;;;;;;;;;5050566;28;20170;-42
2022/06/01 07:22:03;;;;;;;24.77;17.83;;;;;;;;;;5053364;28;20171;-42
2022/06/01 07:24:29;;;;;;;27.87;18.50;;;;;;;;;;5048778;28;20171;-43
2022/06/01 07:26:55;;;;;;;23.67;17.67;;;;;;;;;;5053705;28;20186;-42
2022/06/01 07:29:21;;;;;;;25.20;16.83;;;;;;;;;;5051785;28;20447;-42
2022/06/01 07:31:48;;;;;;;24.20;15.53;;;;;;;;;;5051694;28;20534;-43
2022/06/01 07:34:14;;;;;;;20.23;15.90;;;;;;;;;;5048479;28;20185;-42
2022/06/01 07:36:41;;;;;;;22.23;16.07;;;;;;;;;;5050357;28;20490;-42
2022/06/01 07:44:51;;;;;;;21.80;15.60;;;;;;;;;;5049572;28;20186;-42
2022/06/01 07:47:17;;;;;;;16.77;13.20;;;;;;;;;;5050984;28;20610;-42
2022/06/01 07:49:44;;;;;;;28.87;17.03;;;;;;;;;;5049934;28;20708;-43
2022/06/01 07:52:11;;;;;;;22.33;14.47;;;;;;;;;;5050787;28;20244;-41
2022/06/01 07:54:38;;;;;;;16.47;12.53;;;;;;;;;;5048176;28;20606;-43
2022/06/01 07:57:05;;;;;;;18.03;13.30;;;;;;;;;;5050474;28;20399;-42
2022/06/01 07:59:31;;;;;;;20.97;15.23;;;;;;;;;;5049242;28;20175;-42
2022/06/01 08:01:57;;;;;;;26.13;14.13;;;;;;;;;;5048113;28;20213;-42
2022/06/01 08:04:23;;;;;;;18.73;13.97;;;;;;;;;;5047926;28;20499;-43
2022/06/01 08:06:49;;;;;;;17.90;13.30;;;;;;;;;;5048353;28;20655;-43
2022/06/01 08:09:15;;;;;;;20.27;14.27;;;;;;;;;;5049568;28;20477;-42
2022/06/01 08:14:26;;;;;;;14.37;11.33;;;;;;;;;;5049050;28;20201;-42
2022/06/01 08:16:52;;;;;;;18.77;11.50;;;;;;;;;;5050426;28;20257;-41
2022/06/01 08:19:18;;;;;;;14.83;12.07;;;;;;;;;;5047985;28;20987;-43
2022/06/01 08:21:45;;;;;;;15.43;10.97;;;;;;;;;;5048447;28;20178;-42
2022/06/01 08:24:12;;;;;;;15.37;10.67;;;;;;;;;;5049536;28;20282;-43
2022/06/01 08:26:38;;;;;;;34.73;14.67;;;;;;;;;;5051720;28;20187;-41
2022/06/01 08:29:04;;;;;;;18.20;12.73;;;;;;;;;;5052778;28;20260;-43
2022/06/01 08:31:31;;;;;;;16.83;12.70;;;;;;;;;;5048836;28;20912;-43
2022/06/01 08:33:58;;;;;;;20.10;13.30;;;;;;;;;;5048930;28;20189;-42
2022/06/01 08:36:25;;;;;;;21.70;14.90;;;;;;;;;;5048899;28;20637;-43
2022/06/01 08:38:51;;;;;;;19.37;13.40;;;;;;;;;;5050900;28;20531;-43
2022/06/01 08:41:18;;;;;;;22.00;13.63;;;;;;;;;;5047010;28;20171;-42
2022/06/01 08:43:53;;;;;;;25.33;14.20;;;;;;;;;;5048950;28;20172;-42
2022/06/01 08:46:19;;;;;;;16.60;13.93;;;;;;;;;;5049108;28;20655;-42
2022/06/01 08:48:50;;;;;;;16.70;12.43;;;;;;;;;;5046525;28;20175;-43
2022/06/01 08:51:21;;;;;;;23.30;15.47;;;;;;;;;;5048899;28;20178;-43
2022/06/01 08:53:47;;;;;;;22.37;16.07;;;;;;;;;;5047006;28;20584;-43
2022/06/01 08:56:18;;;;;;;21.53;15.60;;;;;;;;;;5050701;28;20500;-43
2022/06/01 08:58:56;;;;;;;19.53;16.03;;;;;;;;;;5046337;28;20582;-42
2022/06/01 09:01:45;;;;;;;23.03;18.00;;;;;;;;;;5047795;28;20388;-42
2022/06/01 09:04:25;;;;;;;20.40;16.00;;;;;;;;;;5052167;28;20723;-43
2022/06/01 09:06:54;;;;;;;18.93;13.47;;;;;;;;;;5047475;28;20591;-43
2022/06/01 09:09:26;;;;;;;22.50;14.40;;;;;;;;;;5047447;28;20200;-43
2022/06/01 09:11:53;;;;;;;20.30;14.27;;;;;;;;;;5052525;28;20174;-43
2022/06/01 09:14:29;;;;;;;22.07;15.10;;;;;;;;;;5048053;28;20242;-43
2022/06/01 09:16:56;;;;;;;23.43;15.47;;;;;;;;;;5048404;28;20190;-43
2022/06/01 09:19:22;;;;;;;19.70;14.77;;;;;;;;;;5051798;28;20168;-42
2022/06/01 09:24:54;;;;;;;19.60;15.53;;;;;;;;;;5046008;28;20810;-43
2022/06/01 09:27:33;;;;;;;22.73;16.67;;;;;;;;;;5047321;28;20171;-43
2022/06/01 09:29:59;;;;;;;19.40;15.10;;;;;;;;;;5048655;28;20233;-42
2022/06/01 09:32:32;;;;;;;19.93;13.67;;;;;;;;;;5045433;28;20614;-43
2022/06/01 09:35:00;;;;;;;18.87;13.77;;;;;;;;;;5048781;28;20186;-43
2022/06/01 09:37:32;;;;;;;17.87;13.03;;;;;;;;;;5049520;28;20374;-43
2022/06/01 09:40:04;;;;;;;14.57;11.93;;;;;;;;;;5043268;28;20183;-43
2022/06/01 09:42:41;;;;;;;19.57;14.63;;;;;;;;;;5046456;28;20649;-43
2022/06/01 09:45:34;;;;;;;21.63;14.80;;;;;;;;;;5044869;28;20583;-43
2022/06/01 09:48:32;;;;;;;17.70;12.63;;;;;;;;;;5038723;28;20194;-43
2022/06/01 09:51:19;;;;;;;19.20;12.03;;;;;;;;;;5028195;28;20837;-43
2022/06/01 09:54:05;;;;;;;18.57;12.17;;;;;;;;;;5047367;28;20176;-43
2022/06/01 09:56:32;;;;;;;15.23;10.43;;;;;;;;;;5051477;28;20583;-43
2022/06/01 10:07:33;;;;;;;22.00;14.67;;;;;;;;;;5010791;28;20191;-42
2022/06/01 10:10:06;;;;;;;17.23;13.67;;;;;;;;;;5012400;28;20250;-42
2022/06/01 10:12:34;;;;;;;20.60;13.90;;;;;;;;;;5028061;28;20179;-42
2022/06/01 10:15:02;;;;;;;19.83;14.00;;;;;;;;;;5049510;28;20969;-42
2022/06/01 10:17:29;;;;;;;18.60;13.07;;;;;;;;;;5046864;28;20193;-43
2022/06/01 10:19:56;;;;;;;19.67;14.57;;;;;;;;;;5044955;28;20885;-43
2022/06/01 10:22:38;;;;;;;17.67;13.13;;;;;;;;;;5048003;28;20175;-43
2022/06/01 10:25:07;;;;;;;17.00;12.30;;;;;;;;;;5049084;28;21051;-43
2022/06/01 10:27:43;;;;;;;17.77;11.90;;;;;;;;;;5046704;28;20323;-43
2022/06/01 10:30:18;;;;;;;19.37;13.50;;;;;;;;;;5047022;28;20178;-43
2022/06/01 10:32:54;;;;;;;15.60;11.10;;;;;;;;;;5051643;28;20215;-42
2022/06/01 10:35:35;;;;;;;13.53;10.17;;;;;;;;;;5047184;28;20188;-43
2022/06/01 10:38:07;;;;;;;17.87;12.17;;;;;;;;;;5050603;28;21120;-43
2022/06/01 10:40:37;;;;;;;16.30;10.33;;;;;;;;;;5067688;27;20970;-43
2022/06/01 10:43:16;;;;;;;17.50;11.50;;;;;;;;;;5055659;28;20175;-43
2022/06/01 10:46:02;;;;;;;14.70;10.10;;;;;;;;;;5049835;28;20247;-43
2022/06/01 10:48:28;;;;;;;15.00;10.13;;;;;;;;;;5052441;28;20922;-43
2022/06/01 10:51:03;;;;;;;17.57;11.67;;;;;;;;;;5052591;28;20263;-43
2022/06/01 10:53:48;;;;;;;19.87;14.50;;;;;;;;;;5049016;28;20836;-43
2022/06/01 10:56:15;;;;;;;20.37;13.10;;;;;;;;;;5047388;28;20190;-43
2022/06/01 10:58:41;;;;;;;18.50;12.03;;;;;;;;;;5052427;28;20192;-43
2022/06/01 11:01:16;;;;;;;14.17;10.80;;;;;;;;;;5051518;28;20349;-43
2022/06/01 11:03:58;;;;;;;16.67;12.30;;;;;;;;;;5048840;28;20293;-42
2022/06/01 11:06:42;;;;;;;21.43;13.50;;;;;;;;;;5049182;28;21165;-43
2022/06/01 11:09:24;;;;;;;16.13;11.77;;;;;;;;;;5052864;28;20230;-43
2022/06/01 11:12:08;;;;;;;19.37;12.30;;;;;;;;;;5049237;28;20174;-43
2022/06/01 11:14:53;;;;;;;14.17;11.70;;;;;;;;;;5049365;28;21113;-43
2022/06/01 11:17:29;;;;;;;20.57;12.83;;;;;;;;;;5048714;28;20290;-43
2022/06/01 11:20:11;;;;;;;16.17;12.87;;;;;;;;;;5051435;28;20178;-43
2022/06/01 11:22:40;;;;;;;20.03;14.27;;;;;;;;;;5049062;28;21018;-43
2022/06/01 11:25:11;;;;;;;18.47;12.60;;;;;;;;;;5046806;28;20185;-43
2022/06/01 11:27:56;;;;;;;19.60;12.90;;;;;;;;;;5052827;28;20201;-43
2022/06/01 11:30:25;;;;;;;20.73;15.03;;;;;;;;;;5050416;28;20916;-43
2022/06/01 11:32:55;;;;;;;25.07;14.57;;;;;;;;;;5048477;28;20252;-43
2022/06/01 11:35:41;;;;;;;18.77;14.33;;;;;;;;;;5052134;28;20209;-43
2022/06/01 11:38:13;;;;;;;20.97;13.97;;;;;;;;;;5049725;28;20191;-43
2022/06/01 11:40:48;;;;;;;23.00;14.83;;;;;;;;;;5051865;28;20966;-43
2022/06/01 11:43:21;;;;;;;19.63;15.53;;;;;;;;;;5052120;28;20202;-43
2022/06/01 11:45:53;;;;;;;21.47;14.27;;;;;;;;;;5047570;28;20202;-43
2022/06/01 11:48:38;;;;;;;23.43;17.67;;;;;;;;;;5047837;28;20849;-43
2022/06/01 11:51:12;;;;;;;24.00;17.10;;;;;;;;;;5049556;28;20853;-43
2022/06/01 11:53:57;;;;;;;25.50;16.27;;;;;;;;;;5053083;28;20237;-43
2022/06/01 11:56:23;;;;;;;21.40;14.30;;;;;;;;;;5044943;28;20669;-43
2022/06/01 11:59:08;;;;;;;25.67;16.80;;;;;;;;;;5045184;28;20888;-42
2022/06/01 12:01:45;;;;;;;22.33;15.50;;;;;;;;;;5044705;28;20266;-44
2022/06/01 12:04:17;;;;;;;19.97;14.63;;;;;;;;;;5046792;28;20467;-44
2022/06/01 12:06:43;;;;;;;19.03;14.27;;;;;;;;;;5049504;28;20715;-44
2022/06/01 12:09:33;;;;;;;14.27;11.47;;;;;;;;;;5051984;28;20635;-44
2022/06/01 12:12:00;;;;;;;25.63;14.77;;;;;;;;;;5034852;28;20182;-44
2022/06/01 12:14:32;;;;;;;18.40;13.80;;;;;;;;;;5043267;28;20187;-43
2022/06/01 12:17:22;;;;;;;24.67;13.87;;;;;;;;;;5042785;28;20195;-44
2022/06/01 12:19:52;;;;;;;18.87;13.20;;;;;;;;;;5049629;28;20914;-44
2022/06/01 12:28:51;;;;;;;18.70;12.00;;;;;;;;;;5049990;28;20402;-44
2022/06/01 12:31:17;;;;;;;16.07;10.60;;;;;;;;;;5048889;28;20426;-44
2022/06/01 12:34:03;;;;;;;16.30;11.00;;;;;;;;;;5044159;28;20913;-40
2022/06/01 12:36:31;;;;;;;17.87;10.20;;;;;;;;;;5047661;28;20559;-44
2022/06/01 12:38:57;;;;;;;15.43;9.43;;;;;;;;;;5048901;28;20182;-44
2022/06/01 12:41:26;;;;;;;17.27;10.57;;;;;;;;;;5045692;28;21185;-44
2022/06/01 12:43:54;;;;;;;14.80;9.33;;;;;;;;;;5045812;28;20175;-44
2022/06/01 12:46:25;;;;;;;15.33;10.10;;;;;;;;;;5050502;28;20718;-44
2022/06/01 12:48:52;;;;;;;16.27;10.80;;;;;;;;;;5048041;28;20737;-44
2022/06/01 12:51:19;;;;;;;14.97;10.00;;;;;;;;;;5047429;28;20222;-44
2022/06/01 12:53:47;;;;;;;14.40;9.70;;;;;;;;;;5049205;28;20839;-44
2022/06/01 12:56:16;;;;;;;25.97;11.30;;;;;;;;;;5052643;28;20193;-44
2022/06/01 12:58:43;;;;;;;14.67;9.87;;;;;;;;;;5043487;28;20209;-45
2022/06/01 13:01:10;;;;;;;15.67;9.10;;;;;;;;;;5049974;28;20943;-43
2022/06/01 13:03:42;;;;;;;14.17;8.90;;;;;;;;;;5052865;28;20215;-44
2022/06/01 13:06:10;;;;;;;12.53;8.97;;;;;;;;;;5046638;28;20180;-43
2022/06/01 13:08:37;;;;;;;17.53;9.37;;;;;;;;;;5052602;28;20171;-43
2022/06/01 13:11:14;;;;;;;13.87;8.53;;;;;;;;;;5050722;28;20605;-44
2022/06/01 13:13:42;;;;;;;12.77;8.87;;;;;;;;;;5045979;28;20178;-44
2022/06/01 13:16:08;;;;;;;14.77;9.80;;;;;;;;;;5048635;28;20665;-44
2022/06/01 13:18:44;;;;;;;12.13;8.33;;;;;;;;;;5053094;28;20175;-44
2022/06/01 13:21:14;;;;;;;10.83;7.70;;;;;;;;;;5050020;28;20606;-44
2022/06/01 13:23:40;;;;;;;13.03;8.93;;;;;;;;;;5058452;28;20164;-43
2022/06/01 13:26:08;;;;;;;15.13;8.57;;;;;;;;;;5047258;28;20175;-44
2022/06/01 13:28:34;;;;;;;14.07;7.93;;;;;;;;;;5050596;28;20182;-44
2022/06/01 13:31:00;;;;;;;14.80;8.40;;;;;;;;;;5049848;28;20464;-44
2022/06/01 13:33:29;;;;;;;10.40;7.67;;;;;;;;;;5048857;28;20172;-44
2022/06/01 13:35:57;;;;;;;12.53;7.70;;;;;;;;;;5045508;28;20650;-44
2022/06/01 13:38:25;;;;;;;19.40;8.13;;;;;;;;;;5046742;28;20920;-44
2022/06/01 13:40:56;;;;;;;12.40;7.47;;;;;;;;;;5049909;28;20456;-44
2022/06/01 13:43:22;;;;;;;11.90;6.80;;;;;;;;;;5046810;28;20180;-44
2022/06/01 13:45:51;;;;;;;10.03;6.83;;;;;;;;;;5048697;28;20241;-43
2022/06/01 13:48:37;;;;;;;12.07;7.53;;;;;;;;;;5050237;28;20284;-44
2022/06/01 13:51:04;;;;;;;9.93;6.57;;;;;;;;;;5044474;28;20592;-42
2022/06/01 13:53:41;;;;;;;10.17;6.70;;;;;;;;;;5048747;28;20170;-43
2022/06/01 13:56:20;;;;;;;10.43;7.03;;;;;;;;;;5046779;28;20293;-44
2022/06/01 13:59:01;;;;;;;11.60;7.53;;;;;;;;;;5049405;28;20324;-44
2022/06/01 14:01:30;;;;;;;9.17;6.27;;;;;;;;;;5048414;28;20375;-44
2022/06/01 14:03:58;;;;;;;14.53;7.70;;;;;;;;;;5046576;28;20172;-44
2022/06/01 14:06:32;;;;;;;11.13;6.67;;;;;;;;;;5046314;28;20859;-44
2022/06/01 14:09:00;;;;;;;9.77;6.67;;;;;;;;;;5045006;28;20648;-44
2022/06/01 14:11:28;;;;;;;12.13;7.43;;;;;;;;;;5048367;28;20374;-44
2022/06/01 14:13:55;;;;;;;11.67;7.50;;;;;;;;;;5043768;28;20753;-44
2022/06/01 14:16:21;;;;;;;11.37;7.40;;;;;;;;;;5054178;28;20194;-44
2022/06/01 14:18:58;;;;;;;13.23;7.00;;;;;;;;;;5052568;28;20170;-44
2022/06/01 14:21:25;;;;;;;9.60;6.20;;;;;;;;;;5048701;28;20244;-44
2022/06/01 14:23:51;;;;;;;7.40;6.30;;;;;;;;;;5051076;28;20639;-44
2022/06/01 14:29:03;;;;;;;9.47;5.73;;;;;;;;;;5051168;28;20186;-44
2022/06/01 14:31:30;;;;;;;11.27;6.80;;;;;;;;;;5048654;28;20179;-44
2022/06/01 14:33:57;;;;;;;10.40;6.73;;;;;;;;;;5056339;28;20286;-44
2022/06/01 14:36:23;;;;;;;12.63;6.67;;;;;;;;;;5059533;28;20730;-44
2022/06/01 14:38:50;;;;;;;14.10;6.43;;;;;;;;;;5058933;28;20372;-42
2022/06/01 14:41:37;;;;;;;9.63;6.07;;;;;;;;;;5063431;28;20725;-42
2022/06/01 14:44:05;;;;;;;11.77;7.17;;;;;;;;;;5056265;28;20678;-42
2022/06/01 14:46:32;;;;;;;10.40;6.53;;;;;;;;;;5057168;28;20623;-42
2022/06/01 14:48:58;;;;;;;15.13;6.97;;;;;;;;;;5060399;28;20185;-43
2022/06/01 14:51:26;;;;;;;10.23;6.23;;;;;;;;;;5056849;28;20263;-43
2022/06/01 14:53:53;;;;;;;11.63;6.50;;;;;;;;;;5057010;28;20795;-43
2022/06/01 14:56:19;;;;;;;12.87;6.80;;;;;;;;;;5058616;28;20186;-42
2022/06/01 14:58:45;;;;;;;11.53;6.60;;;;;;;;;;5054492;28;20175;-43
2022/06/01 15:01:13;;;;;;;10.23;6.27;;;;;;;;;;5058956;28;20228;-43
2022/06/01 15:03:40;;;;;;;8.83;6.20;;;;;;;;;;5046706;28;20500;-43
2022/06/01 15:06:08;;;;;;;9.63;6.10;;;;;;;;;;5044894;28;20924;-43
2022/06/01 15:08:34;;;;;;;11.63;6.83;;;;;;;;;;5033550;28;20183;-43